Cedar Falls, Iowa
Current Conditions -  °F | °C
As of 11:54 PM on Monday 26 Jan 2015 (Local Time) from KALO Reporting Station
Clear Clear  
Wind Chill: 25°   Ceiling: Unl
Heat Index: 33°   Visibility: 10mi
Dew Point: 30°   Wind: 9mph
Humidity: 89%   Direction: 320°NW
Pressure: 29.95"   Gusts: NA
Location:  42.53°N, 92.44°W
Report Text: KALO 270554Z AUTO 32008KT 10SM CLR 01/M01 A2995 RMK AO2 SLP151 T00061011 10056 20006 400781044 53017
Loading
Personal Weather Stations






























Interactive Weather Map New forecast layout! Learn more

10-Day Weather Forecast

Advertisements
Track Severe Weather on mobile